createdAt,value
2019-01-24T00:00:25.655Z,1004.02
2019-01-24T00:01:25.660Z,1004.07
2019-01-24T00:02:25.634Z,1004.03
2019-01-24T00:03:25.622Z,1004.02
2019-01-24T00:04:25.603Z,1004.08
2019-01-24T00:05:25.595Z,1004.07
2019-01-24T00:06:25.604Z,1004.26
2019-01-24T00:07:25.578Z,1004.09
2019-01-24T00:08:25.569Z,1004.09
2019-01-24T00:09:25.568Z,1004.12
2019-01-24T00:10:25.546Z,1004.10
2019-01-24T00:11:25.547Z,1004.05
2019-01-24T00:12:25.525Z,1004.08
2019-01-24T00:13:25.514Z,1004.14
2019-01-24T00:14:25.501Z,1004.10
2019-01-24T00:15:25.482Z,1004.12
2019-01-24T00:16:25.517Z,1004.11
2019-01-24T00:17:25.466Z,1004.10
2019-01-24T00:18:25.483Z,1004.13
2019-01-24T00:19:25.449Z,1004.12
2019-01-24T00:20:25.435Z,1004.19
2019-01-24T00:21:25.437Z,1004.19
2019-01-24T00:22:25.406Z,1004.14
2019-01-24T00:23:25.403Z,1004.08
2019-01-24T00:24:25.386Z,1004.26
2019-01-24T00:25:25.389Z,1004.27
2019-01-24T00:26:25.399Z,1004.14
2019-01-24T00:27:25.361Z,1004.18
2019-01-24T00:28:25.344Z,1004.27
2019-01-24T00:29:25.328Z,1004.29
2019-01-24T00:30:25.327Z,1004.24
2019-01-24T00:31:25.309Z,1004.24
2019-01-24T00:32:25.315Z,1004.21
2019-01-24T00:33:25.303Z,1004.18
2019-01-24T00:34:25.284Z,1004.26
2019-01-24T00:35:25.263Z,1004.27
2019-01-24T00:36:25.262Z,1004.21
2019-01-24T00:37:25.264Z,1004.31
2019-01-24T00:38:25.232Z,1004.26
2019-01-24T00:39:25.226Z,1004.24
2019-01-24T00:40:25.226Z,1004.23
2019-01-24T00:41:25.204Z,1004.41
2019-01-24T00:42:25.218Z,1004.35
2019-01-24T00:43:25.175Z,1004.43
2019-01-24T00:44:25.173Z,1004.34
2019-01-24T00:45:25.160Z,1004.32
2019-01-24T00:46:25.144Z,1004.36
2019-01-24T00:47:25.148Z,1004.37
2019-01-24T00:48:25.139Z,1004.50
2019-01-24T00:49:25.114Z,1004.50
2019-01-24T00:50:25.107Z,1004.59
2019-01-24T00:51:25.085Z,1004.40
2019-01-24T00:52:25.119Z,1004.43
2019-01-24T00:53:25.072Z,1004.48
2019-01-24T00:54:25.058Z,1004.44
2019-01-24T00:55:25.055Z,1004.46
2019-01-24T00:56:25.049Z,1004.38
2019-01-24T00:57:25.057Z,1004.44
2019-01-24T00:58:25.038Z,1004.59
2019-01-24T00:59:25.022Z,1004.56
2019-01-24T01:00:24.998Z,1004.59
2019-01-24T01:01:24.988Z,1004.50
2019-01-24T01:02:24.990Z,1004.43
2019-01-24T01:03:24.959Z,1004.64
2019-01-24T01:04:29.700Z,1004.65
2019-01-24T01:05:25.936Z,1004.49
2019-01-24T01:06:24.935Z,1004.48
2019-01-24T01:07:24.939Z,1004.45
2019-01-24T01:08:24.909Z,1004.48
2019-01-24T01:09:24.901Z,1004.60
2019-01-24T01:10:24.904Z,1004.61
2019-01-24T01:11:24.918Z,1004.66
2019-01-24T01:12:24.881Z,1004.60
2019-01-24T01:13:24.859Z,1004.61
2019-01-24T01:14:24.836Z,1004.53
2019-01-24T01:15:24.818Z,1004.67
2019-01-24T01:16:24.819Z,1004.69
2019-01-24T01:17:24.806Z,1004.71
2019-01-24T01:18:24.816Z,1004.67
2019-01-24T01:19:24.790Z,1004.70
2019-01-24T01:20:24.766Z,1004.68
2019-01-24T01:21:24.774Z,1004.69
2019-01-24T01:22:24.746Z,1004.79
2019-01-24T01:23:25.607Z,1004.78
2019-01-24T01:24:24.727Z,1004.61
2019-01-24T01:25:24.726Z,1004.60
2019-01-24T01:26:24.711Z,1004.68
2019-01-24T01:27:24.686Z,1004.78
2019-01-24T01:28:24.703Z,1004.64
2019-01-24T01:29:24.691Z,1004.62
2019-01-24T01:30:24.664Z,1004.68
2019-01-24T01:31:24.667Z,1004.71
2019-01-24T01:32:24.648Z,1004.63
2019-01-24T01:33:24.654Z,1004.68
2019-01-24T01:34:24.639Z,1004.75
2019-01-24T01:35:24.607Z,1004.78
2019-01-24T01:36:24.596Z,1004.85
2019-01-24T01:37:24.593Z,1004.67
2019-01-24T01:38:24.599Z,1004.74
2019-01-24T01:39:24.588Z,1004.81
2019-01-24T01:40:24.564Z,1004.87
2019-01-24T01:41:24.544Z,1004.94
2019-01-24T01:42:24.538Z,1004.95
2019-01-24T01:43:24.526Z,1004.84
2019-01-24T01:44:24.535Z,1004.82
2019-01-24T01:45:24.512Z,1004.79
2019-01-24T01:46:24.493Z,1004.79
2019-01-24T01:47:24.499Z,1004.87
2019-01-24T01:48:24.490Z,1004.77
2019-01-24T01:49:24.447Z,1004.82
2019-01-24T01:50:24.444Z,1004.78
2019-01-24T01:51:24.438Z,1004.91
2019-01-24T01:52:24.427Z,1004.99
2019-01-24T01:53:24.431Z,1004.82
2019-01-24T01:54:24.401Z,1004.84
2019-01-24T01:55:24.392Z,1004.95
2019-01-24T01:56:24.375Z,1004.82
2019-01-24T01:57:24.383Z,1004.87
2019-01-24T01:58:24.371Z,1004.84
2019-01-24T01:59:24.347Z,1004.79
2019-01-24T02:00:24.341Z,1004.84
2019-01-24T02:01:24.323Z,1004.84
2019-01-24T02:02:24.316Z,1004.78
2019-01-24T02:03:24.317Z,1004.82
2019-01-24T02:04:24.299Z,1004.83
2019-01-24T02:05:24.281Z,1004.83
2019-01-24T02:06:24.279Z,1004.83
2019-01-24T02:07:24.263Z,1004.82
2019-01-24T02:08:24.471Z,1004.83
2019-01-24T02:09:24.247Z,1004.81
2019-01-24T02:10:24.233Z,1004.76
2019-01-24T02:11:24.221Z,1004.79
2019-01-24T02:12:24.212Z,1004.89
2019-01-24T02:13:24.218Z,1004.96
2019-01-24T02:14:24.184Z,1004.93
2019-01-24T02:15:24.175Z,1004.99
2019-01-24T02:16:24.153Z,1004.76
2019-01-24T02:17:24.149Z,1004.78
2019-01-24T02:18:24.156Z,1004.84
2019-01-24T02:19:24.126Z,1004.98
2019-01-24T02:20:24.118Z,1004.92
2019-01-24T02:21:24.122Z,1004.93
2019-01-24T02:22:24.097Z,1004.80
2019-01-24T02:23:24.122Z,1004.79
2019-01-24T02:24:24.070Z,1004.88
2019-01-24T02:25:24.054Z,1004.83
2019-01-24T02:26:24.046Z,1004.81
2019-01-24T02:27:24.044Z,1004.83
2019-01-24T02:28:24.034Z,1004.86
2019-01-24T02:29:24.048Z,1004.96
2019-01-24T02:30:24.017Z,1004.73
2019-01-24T02:31:24.017Z,1004.79
2019-01-24T02:32:23.996Z,1004.78
2019-01-24T02:33:23.997Z,1004.74
2019-01-24T02:34:24.000Z,1004.76
2019-01-24T02:35:23.970Z,1004.75
2019-01-24T02:36:23.944Z,1004.82
2019-01-24T02:37:23.934Z,1004.78
2019-01-24T02:38:23.930Z,1004.73
2019-01-24T02:39:23.934Z,1004.75
2019-01-24T02:40:23.910Z,1004.77
2019-01-24T02:41:23.896Z,1004.74
2019-01-24T02:42:23.884Z,1004.81
2019-01-24T02:43:23.875Z,1004.81
2019-01-24T02:44:23.880Z,1004.83
2019-01-24T02:45:23.843Z,1004.84
2019-01-24T02:46:23.826Z,1004.88
2019-01-24T02:47:23.826Z,1004.96
2019-01-24T02:48:23.817Z,1004.95
2019-01-24T02:49:23.825Z,1004.96
2019-01-24T02:50:23.797Z,1004.95
2019-01-24T02:51:23.793Z,1004.95
2019-01-24T02:52:23.775Z,1004.98
2019-01-24T02:53:23.764Z,1004.94
2019-01-24T02:54:23.754Z,1005.06
2019-01-24T02:55:23.740Z,1005.03
2019-01-24T02:56:23.730Z,1005.11
2019-01-24T02:57:23.732Z,1005.09
2019-01-24T02:58:23.697Z,1005.08
2019-01-24T02:59:23.713Z,1005.06
2019-01-24T03:00:23.694Z,1005.11
2019-01-24T03:01:23.675Z,1005.01
2019-01-24T03:02:23.667Z,1004.98
2019-01-24T03:03:23.661Z,1004.98
2019-01-24T03:04:23.664Z,1005.01
2019-01-24T03:05:23.626Z,1004.98
2019-01-24T03:06:23.628Z,1004.91
2019-01-24T03:07:23.599Z,1005.00
2019-01-24T03:08:23.609Z,1004.96
2019-01-24T03:09:23.617Z,1004.98
2019-01-24T03:10:23.571Z,1004.94
2019-01-24T03:11:23.561Z,1004.95
2019-01-24T03:12:23.567Z,1004.95
2019-01-24T03:13:23.535Z,1004.97
2019-01-24T03:14:23.537Z,1004.99
2019-01-24T03:15:23.539Z,1005.02
2019-01-24T03:16:23.519Z,1005.03
2019-01-24T03:17:23.496Z,1004.97
2019-01-24T03:18:23.492Z,1004.92
2019-01-24T03:19:23.487Z,1004.96
2019-01-24T03:20:23.479Z,1004.86
2019-01-24T03:21:23.459Z,1004.85
2019-01-24T03:22:23.440Z,1004.87
2019-01-24T03:23:23.437Z,1004.83
2019-01-24T03:24:23.450Z,1004.90
2019-01-24T03:25:23.428Z,1004.92
2019-01-24T03:26:23.396Z,1004.85
2019-01-24T03:27:23.388Z,1004.85
2019-01-24T03:28:23.377Z,1004.88
2019-01-24T03:29:23.364Z,1004.87
2019-01-24T03:30:23.384Z,1004.84
2019-01-24T03:31:23.362Z,1004.90
2019-01-24T03:32:23.332Z,1004.84
2019-01-24T03:33:23.320Z,1004.96
2019-01-24T03:34:23.307Z,1005.03
2019-01-24T03:35:23.322Z,1005.05
2019-01-24T03:36:23.300Z,1005.09
2019-01-24T03:37:23.294Z,1005.02
2019-01-24T03:38:23.275Z,1005.06
2019-01-24T03:39:23.256Z,1005.04
2019-01-24T03:40:23.271Z,1005.14
2019-01-24T03:41:23.242Z,1005.02
2019-01-24T03:42:23.233Z,1004.96
2019-01-24T03:43:23.210Z,1004.97
2019-01-24T03:44:23.202Z,1004.96
2019-01-24T03:45:23.217Z,1005.06
2019-01-24T03:46:23.230Z,1005.14
2019-01-24T03:47:23.166Z,1005.07
2019-01-24T03:48:23.176Z,1005.09
2019-01-24T03:49:23.145Z,1005.09
2019-01-24T03:50:23.141Z,1004.97
2019-01-24T03:51:23.140Z,1004.99
2019-01-24T03:52:23.110Z,1005.04
2019-01-24T03:53:23.104Z,1005.00
2019-01-24T03:54:23.099Z,1005.08
2019-01-24T03:55:23.074Z,1005.07
2019-01-24T03:56:23.088Z,1005.04
2019-01-24T03:57:23.057Z,1005.10
2019-01-24T03:58:23.056Z,1005.11
2019-01-24T03:59:23.056Z,1005.13
2019-01-24T04:00:23.019Z,1005.14
2019-01-24T04:01:23.045Z,1005.12
2019-01-24T04:02:23.014Z,1005.18
2019-01-24T04:03:22.992Z,1005.12
2019-01-24T04:04:22.992Z,1005.23
2019-01-24T04:05:22.973Z,1005.17
2019-01-24T04:06:22.975Z,1005.22
2019-01-24T04:07:22.947Z,1005.15
2019-01-24T04:08:22.954Z,1005.17
2019-01-24T04:09:22.926Z,1005.16
2019-01-24T04:10:22.932Z,1005.12
2019-01-24T04:11:22.938Z,1005.27
2019-01-24T04:12:22.900Z,1005.13
2019-01-24T04:13:22.897Z,1005.13
2019-01-24T04:14:22.882Z,1005.14
2019-01-24T04:15:22.863Z,1005.20
2019-01-24T04:16:22.903Z,1005.18
2019-01-24T04:17:22.837Z,1005.17
2019-01-24T04:18:22.830Z,1005.17
2019-01-24T04:19:22.816Z,1005.18
2019-01-24T04:20:22.820Z,1005.21
2019-01-24T04:21:23.402Z,1005.18
2019-01-24T04:22:22.791Z,1005.18
2019-01-24T04:23:22.778Z,1005.32
2019-01-24T04:24:22.777Z,1005.31
2019-01-24T04:25:23.119Z,1005.36
2019-01-24T04:26:22.759Z,1005.26
2019-01-24T04:27:22.739Z,1005.29
2019-01-24T04:28:22.724Z,1005.36
2019-01-24T04:29:22.712Z,1005.35
2019-01-24T04:30:22.702Z,1005.41
2019-01-24T04:31:22.699Z,1005.25
2019-01-24T04:32:22.708Z,1005.27
2019-01-24T04:33:22.682Z,1005.30
2019-01-24T04:34:22.676Z,1005.27
2019-01-24T04:35:22.651Z,1005.20
2019-01-24T04:36:22.642Z,1005.27
2019-01-24T04:37:22.647Z,1005.29
2019-01-24T04:38:22.616Z,1005.26
2019-01-24T04:39:22.604Z,1005.26
2019-01-24T04:40:22.603Z,1005.32
2019-01-24T04:41:22.594Z,1005.36
2019-01-24T04:42:22.576Z,1005.27
2019-01-24T04:43:22.563Z,1005.33
2019-01-24T04:44:22.546Z,1005.16
2019-01-24T04:45:22.536Z,1005.15
2019-01-24T04:46:22.533Z,1005.28
2019-01-24T04:47:22.533Z,1005.18
2019-01-24T04:48:22.512Z,1005.20
2019-01-24T04:49:22.495Z,1005.20
2019-01-24T04:50:22.484Z,1005.28
2019-01-24T04:51:22.474Z,1005.24
2019-01-24T04:52:22.476Z,1005.25
2019-01-24T04:53:22.465Z,1005.33
2019-01-24T04:54:22.461Z,1005.29
2019-01-24T04:55:22.449Z,1005.37
2019-01-24T04:56:22.425Z,1005.36
2019-01-24T04:57:22.434Z,1005.29
2019-01-24T04:58:22.398Z,1005.34
2019-01-24T04:59:22.379Z,1005.42
2019-01-24T05:00:22.417Z,1005.38
2019-01-24T05:01:22.368Z,1005.37
2019-01-24T05:02:22.374Z,1005.40
2019-01-24T05:03:22.342Z,1005.38
2019-01-24T05:04:22.334Z,1005.49
2019-01-24T05:05:27.702Z,1005.45
2019-01-24T05:06:23.309Z,1005.48
2019-01-24T05:07:22.342Z,1005.49
2019-01-24T05:08:22.312Z,1005.62
2019-01-24T05:09:22.278Z,1005.65
2019-01-24T05:10:22.261Z,1005.66
2019-01-24T05:11:22.276Z,1005.66
2019-01-24T05:12:22.251Z,1005.62
2019-01-24T05:13:22.248Z,1005.55
2019-01-24T05:14:22.225Z,1005.63
2019-01-24T05:15:22.213Z,1005.54
2019-01-24T05:16:22.204Z,1005.74
2019-01-24T05:17:23.469Z,1005.62
2019-01-24T05:18:22.188Z,1005.66
2019-01-24T05:19:22.163Z,1005.69
2019-01-24T05:20:22.159Z,1005.64
2019-01-24T05:21:22.153Z,1005.64
2019-01-24T05:22:22.135Z,1005.65
2019-01-24T05:23:22.145Z,1005.66
2019-01-24T05:24:22.130Z,1005.67
2019-01-24T05:25:22.092Z,1005.60
2019-01-24T05:26:22.090Z,1005.71
2019-01-24T05:27:22.085Z,1005.68
2019-01-24T05:28:22.077Z,1005.72
2019-01-24T05:29:22.058Z,1005.66
2019-01-24T05:30:22.051Z,1005.63
2019-01-24T05:31:22.030Z,1005.64
2019-01-24T05:32:22.027Z,1005.70
2019-01-24T05:33:22.025Z,1005.62
2019-01-24T05:34:21.997Z,1005.73
2019-01-24T05:35:21.997Z,1005.81
2019-01-24T05:36:21.988Z,1005.67
2019-01-24T05:37:21.982Z,1005.65
2019-01-24T05:38:21.967Z,1005.63
2019-01-24T05:39:21.956Z,1005.64
2019-01-24T05:40:21.940Z,1005.66
2019-01-24T05:41:21.946Z,1005.75
2019-01-24T05:42:21.909Z,1005.72
2019-01-24T05:43:21.917Z,1005.72
2019-01-24T05:44:21.901Z,1005.72
2019-01-24T05:45:21.915Z,1005.71
2019-01-24T05:46:21.871Z,1005.79
2019-01-24T05:47:21.874Z,1005.72
2019-01-24T05:48:21.849Z,1005.81
2019-01-24T05:49:21.861Z,1005.74
2019-01-24T05:50:21.837Z,1005.77
2019-01-24T05:51:21.827Z,1005.83
2019-01-24T05:52:21.819Z,1005.81
2019-01-24T05:53:21.794Z,1005.76
2019-01-24T05:54:21.830Z,1005.84
2019-01-24T05:55:21.781Z,1005.89
2019-01-24T05:56:21.761Z,1005.87
2019-01-24T05:57:21.747Z,1005.86
2019-01-24T05:58:21.753Z,1005.88
2019-01-24T05:59:21.752Z,1005.86
2019-01-24T06:00:21.722Z,1005.88
2019-01-24T06:01:21.705Z,1005.86
2019-01-24T06:02:21.708Z,1005.85
2019-01-24T06:03:21.687Z,1006.02
2019-01-24T06:04:21.691Z,1005.96
2019-01-24T06:05:21.662Z,1006.01
2019-01-24T06:06:21.672Z,1006.00
2019-01-24T06:07:21.641Z,1005.99
2019-01-24T06:08:21.635Z,1006.07
2019-01-24T06:09:21.628Z,1006.00
2019-01-24T06:10:21.614Z,1006.09
2019-01-24T06:11:21.596Z,1006.06
2019-01-24T06:12:21.581Z,1006.07
2019-01-24T06:13:21.587Z,1006.00
2019-01-24T06:14:21.585Z,1006.07
2019-01-24T06:15:21.558Z,1006.14
2019-01-24T06:16:21.556Z,1006.18
2019-01-24T06:17:21.538Z,1006.11
2019-01-24T06:18:21.518Z,1006.17
2019-01-24T06:19:21.540Z,1006.19
2019-01-24T06:20:21.509Z,1006.15
2019-01-24T06:21:21.503Z,1006.13
2019-01-24T06:22:21.478Z,1006.13
2019-01-24T06:23:21.464Z,1006.07
2019-01-24T06:24:21.485Z,1006.14
2019-01-24T06:25:21.452Z,1006.18
2019-01-24T06:26:21.445Z,1006.19
2019-01-24T06:27:21.429Z,1006.22
2019-01-24T06:28:21.438Z,1006.22
2019-01-24T06:29:21.404Z,1006.07
2019-01-24T06:30:21.413Z,1006.16
2019-01-24T06:31:21.399Z,1006.13
2019-01-24T06:32:21.374Z,1006.15
2019-01-24T06:33:21.371Z,1006.15
2019-01-24T06:34:21.346Z,1006.14
2019-01-24T06:35:21.361Z,1006.14
2019-01-24T06:36:21.317Z,1006.16
2019-01-24T06:37:21.314Z,1006.18
2019-01-24T06:38:21.314Z,1006.19
2019-01-24T06:39:21.282Z,1006.22
2019-01-24T06:40:21.300Z,1006.24
2019-01-24T06:41:21.269Z,1006.25
2019-01-24T06:42:21.272Z,1006.22
2019-01-24T06:43:21.253Z,1006.21
2019-01-24T06:44:21.246Z,1006.24
2019-01-24T06:45:21.257Z,1006.29
2019-01-24T06:46:21.213Z,1006.35
2019-01-24T06:47:21.230Z,1006.26
2019-01-24T06:48:21.205Z,1006.30
2019-01-24T06:49:21.190Z,1006.37
2019-01-24T06:50:21.203Z,1006.34
2019-01-24T06:51:21.157Z,1006.26
2019-01-24T06:52:21.161Z,1006.30
2019-01-24T06:53:21.157Z,1006.34
2019-01-24T06:54:22.423Z,1006.31
2019-01-24T06:55:21.237Z,1006.32
2019-01-24T06:56:21.109Z,1006.36
2019-01-24T06:57:21.097Z,1006.37
2019-01-24T06:58:21.115Z,1006.46
2019-01-24T06:59:21.075Z,1006.45
2019-01-24T07:00:21.108Z,1006.46
2019-01-24T07:01:21.067Z,1006.55
2019-01-24T07:02:21.081Z,1006.49
2019-01-24T07:03:21.038Z,1006.42
2019-01-24T07:04:21.029Z,1006.50
2019-01-24T07:05:21.038Z,1006.48
2019-01-24T07:06:21.004Z,1006.47
2019-01-24T07:07:21.002Z,1006.54
2019-01-24T07:08:20.981Z,1006.56
2019-01-24T07:09:20.978Z,1006.54
2019-01-24T07:10:20.956Z,1006.57
2019-01-24T07:11:21.053Z,1006.58
2019-01-24T07:12:20.936Z,1006.54
2019-01-24T07:13:20.934Z,1006.49
2019-01-24T07:14:20.912Z,1006.51
2019-01-24T07:15:20.900Z,1006.58
2019-01-24T07:16:20.918Z,1006.57
2019-01-24T07:17:20.881Z,1006.55
2019-01-24T07:18:20.889Z,1006.57
2019-01-24T07:19:20.857Z,1006.52
2019-01-24T07:20:20.847Z,1006.55
2019-01-24T07:21:20.857Z,1006.51
2019-01-24T07:22:20.860Z,1006.56
2019-01-24T07:23:20.812Z,1006.54
2019-01-24T07:24:21.520Z,1006.53
2019-01-24T07:25:20.805Z,1006.53
2019-01-24T07:26:20.826Z,1006.59
2019-01-24T07:27:20.779Z,1006.56
2019-01-24T07:28:20.771Z,1006.54
2019-01-24T07:29:20.757Z,1006.58
2019-01-24T07:30:20.748Z,1006.56
2019-01-24T07:31:20.747Z,1006.57
2019-01-24T07:32:20.714Z,1006.60
2019-01-24T07:33:20.725Z,1006.60
2019-01-24T07:34:20.696Z,1006.73
2019-01-24T07:35:20.691Z,1006.74
2019-01-24T07:36:20.711Z,1006.59
2019-01-24T07:37:20.659Z,1006.56
2019-01-24T07:38:20.661Z,1006.56
2019-01-24T07:39:20.663Z,1006.58
2019-01-24T07:40:20.630Z,1006.59
2019-01-24T07:41:20.640Z,1006.64
2019-01-24T07:42:20.606Z,1006.69
2019-01-24T07:43:20.627Z,1006.70
2019-01-24T07:44:20.599Z,1006.78
2019-01-24T07:45:20.574Z,1006.74
2019-01-24T07:46:20.579Z,1006.74
2019-01-24T07:47:20.550Z,1006.82
2019-01-24T07:48:20.557Z,1006.80
2019-01-24T07:49:20.528Z,1006.84
2019-01-24T07:50:20.520Z,1006.85
2019-01-24T07:51:20.525Z,1006.84
2019-01-24T07:52:20.508Z,1006.79
2019-01-24T07:53:20.500Z,1006.97
2019-01-24T07:54:20.471Z,1006.88
2019-01-24T07:55:20.466Z,1007.00
2019-01-24T07:56:20.466Z,1006.94
2019-01-24T07:57:20.444Z,1006.96
2019-01-24T07:58:20.428Z,1006.93
2019-01-24T07:59:20.438Z,1007.00
2019-01-24T08:00:20.416Z,1007.05
2019-01-24T08:01:20.423Z,1007.06
2019-01-24T08:02:20.386Z,1007.02
2019-01-24T08:03:20.378Z,1007.06
2019-01-24T08:04:20.364Z,1006.98
2019-01-24T08:05:20.363Z,1006.96
2019-01-24T08:06:20.368Z,1007.07
2019-01-24T08:07:20.340Z,1006.93
2019-01-24T08:08:20.341Z,1006.95
2019-01-24T08:09:20.316Z,1006.87
2019-01-24T08:10:20.318Z,1006.96
2019-01-24T08:11:20.310Z,1006.94
2019-01-24T08:12:20.289Z,1006.87
2019-01-24T08:13:20.274Z,1006.89
2019-01-24T08:14:20.258Z,1006.87
2019-01-24T08:15:20.255Z,1006.91
2019-01-24T08:16:20.253Z,1006.90
2019-01-24T08:17:20.233Z,1006.85
2019-01-24T08:18:20.230Z,1006.92
2019-01-24T08:19:20.209Z,1006.90
2019-01-24T08:20:20.196Z,1007.00
2019-01-24T08:21:20.233Z,1006.87
2019-01-24T08:22:20.170Z,1006.96
2019-01-24T08:23:20.168Z,1006.98
2019-01-24T08:24:20.162Z,1007.00
2019-01-24T08:25:20.146Z,1006.94
2019-01-24T08:26:20.175Z,1006.94
2019-01-24T08:27:20.137Z,1006.93
2019-01-24T08:28:20.110Z,1006.96
2019-01-24T08:29:20.094Z,1006.96
2019-01-24T08:30:20.090Z,1006.98
2019-01-24T08:31:20.100Z,1007.02
2019-01-24T08:32:20.085Z,1006.93
2019-01-24T08:33:20.068Z,1006.95
2019-01-24T08:34:20.044Z,1006.92
2019-01-24T08:35:20.046Z,1006.90
2019-01-24T08:36:20.040Z,1006.98
2019-01-24T08:37:20.037Z,1006.89
2019-01-24T08:38:20.001Z,1007.00
2019-01-24T08:39:19.991Z,1007.05
2019-01-24T08:40:20.022Z,1007.01
2019-01-24T08:41:19.997Z,1007.00
2019-01-24T08:42:19.995Z,1007.03
2019-01-24T08:43:19.950Z,1007.09
2019-01-24T08:44:19.943Z,1007.11
2019-01-24T08:45:19.934Z,1007.12
2019-01-24T08:46:19.925Z,1007.18
2019-01-24T08:47:19.923Z,1007.12
2019-01-24T08:48:19.883Z,1007.09
2019-01-24T08:49:19.897Z,1007.10
2019-01-24T08:50:19.906Z,1007.11
2019-01-24T08:51:19.859Z,1007.12
2019-01-24T08:52:20.363Z,1007.06
2019-01-24T08:53:19.834Z,1007.11
2019-01-24T08:54:19.830Z,1007.16
2019-01-24T08:55:19.818Z,1007.09
2019-01-24T08:56:19.809Z,1007.14
2019-01-24T08:57:19.815Z,1007.14
2019-01-24T08:58:19.779Z,1007.11
2019-01-24T08:59:19.771Z,1007.09
2019-01-24T09:00:19.758Z,1007.11
2019-01-24T09:01:19.835Z,1007.08
2019-01-24T09:02:19.759Z,1007.13
2019-01-24T09:03:19.726Z,1007.18
2019-01-24T09:04:19.728Z,1007.06
2019-01-24T09:05:19.708Z,1007.19
2019-01-24T09:06:22.701Z,1007.14
2019-01-24T09:07:19.675Z,1007.15
2019-01-24T09:08:19.683Z,1007.13
2019-01-24T09:09:19.663Z,1007.15
2019-01-24T09:10:19.659Z,1007.12
2019-01-24T09:11:19.637Z,1007.17
2019-01-24T09:12:19.645Z,1007.29
2019-01-24T09:13:19.634Z,1007.33
2019-01-24T09:14:19.615Z,1007.33
2019-01-24T09:15:19.596Z,1007.31
2019-01-24T09:16:19.581Z,1007.36
2019-01-24T09:17:19.568Z,1007.17
2019-01-24T09:18:20.009Z,1007.22
2019-01-24T09:19:19.549Z,1007.22
2019-01-24T09:20:19.545Z,1007.15
2019-01-24T09:21:19.532Z,1007.16
2019-01-24T09:22:19.520Z,1007.20
2019-01-24T09:23:19.541Z,1007.24
2019-01-24T09:24:19.496Z,1007.22
2019-01-24T09:25:19.498Z,1007.23
2019-01-24T09:26:19.486Z,1007.26
2019-01-24T09:27:19.478Z,1007.27
2019-01-24T09:28:19.475Z,1007.32
2019-01-24T09:29:19.444Z,1007.39
2019-01-24T09:30:19.436Z,1007.38
2019-01-24T09:31:19.424Z,1007.36
2019-01-24T09:32:19.411Z,1007.31
2019-01-24T09:33:19.422Z,1007.29
2019-01-24T09:34:19.391Z,1007.28
2019-01-24T09:35:19.378Z,1007.33
2019-01-24T09:36:19.380Z,1007.34
2019-01-24T09:37:19.359Z,1007.29
2019-01-24T09:38:19.356Z,1007.24
2019-01-24T09:39:19.341Z,1007.21
2019-01-24T09:40:19.319Z,1007.28
2019-01-24T09:41:19.320Z,1007.21
2019-01-24T09:42:19.294Z,1007.24
2019-01-24T09:43:19.304Z,1007.21
2019-01-24T09:44:19.286Z,1007.28
2019-01-24T09:45:19.263Z,1007.26
2019-01-24T09:46:19.261Z,1007.24
2019-01-24T09:47:19.237Z,1007.25
2019-01-24T09:48:19.310Z,1007.25
2019-01-24T09:49:19.232Z,1007.44
2019-01-24T09:50:19.222Z,1007.37
2019-01-24T09:51:19.226Z,1007.34
2019-01-24T09:52:19.209Z,1007.39
2019-01-24T09:53:19.171Z,1007.39
2019-01-24T09:54:19.189Z,1007.36
2019-01-24T09:55:19.156Z,1007.38
2019-01-24T09:56:19.159Z,1007.33
2019-01-24T09:57:19.142Z,1007.35
2019-01-24T09:58:19.142Z,1007.30
2019-01-24T09:59:19.154Z,1007.33
2019-01-24T10:00:19.136Z,1007.26
2019-01-24T10:01:19.100Z,1007.22
2019-01-24T10:02:19.089Z,1007.31
2019-01-24T10:03:19.070Z,1007.23
2019-01-24T10:04:19.640Z,1007.31
2019-01-24T10:05:19.052Z,1007.36
2019-01-24T10:06:19.044Z,1007.33
2019-01-24T10:07:19.041Z,1007.37
2019-01-24T10:08:19.023Z,1007.43
2019-01-24T10:09:19.039Z,1007.44
2019-01-24T10:10:18.998Z,1007.41
2019-01-24T10:11:23.456Z,1007.45
2019-01-24T10:12:18.975Z,1007.41
2019-01-24T10:13:18.990Z,1007.44
2019-01-24T10:14:18.995Z,1007.37
2019-01-24T10:15:18.967Z,1007.36
2019-01-24T10:16:18.943Z,1007.45
2019-01-24T10:17:18.930Z,1007.41
2019-01-24T10:18:21.733Z,1007.38
2019-01-24T10:19:18.945Z,1007.44
2019-01-24T10:20:18.895Z,1007.46
2019-01-24T10:21:18.877Z,1007.49
2019-01-24T10:22:18.873Z,1007.44
2019-01-24T10:23:18.928Z,1007.55
2019-01-24T10:24:18.862Z,1007.38
2019-01-24T10:25:18.856Z,1007.44
2019-01-24T10:26:18.827Z,1007.41
2019-01-24T10:27:18.800Z,1007.32
2019-01-24T10:28:18.822Z,1007.36
2019-01-24T10:29:18.792Z,1007.44
2019-01-24T10:30:18.798Z,1007.41
2019-01-24T10:31:18.784Z,1007.37
2019-01-24T10:32:18.771Z,1007.41
2019-01-24T10:33:18.757Z,1007.49
2019-01-24T10:34:18.737Z,1007.40
2019-01-24T10:35:18.813Z,1007.42
2019-01-24T10:36:18.725Z,1007.44
2019-01-24T10:37:18.711Z,1007.46
2019-01-24T10:38:18.700Z,1007.44
2019-01-24T10:39:18.691Z,1007.47
2019-01-24T10:40:18.808Z,1007.55
2019-01-24T10:41:18.673Z,1007.62
2019-01-24T10:42:18.659Z,1007.54
2019-01-24T10:43:18.648Z,1007.54
2019-01-24T10:44:18.640Z,1007.57
2019-01-24T10:45:18.624Z,1007.58
2019-01-24T10:46:18.613Z,1007.56
2019-01-24T10:47:18.616Z,1007.48
2019-01-24T10:48:18.604Z,1007.58
2019-01-24T10:49:18.576Z,1007.55
2019-01-24T10:50:18.590Z,1007.65
2019-01-24T10:51:18.562Z,1007.60
2019-01-24T10:52:18.756Z,1007.67
2019-01-24T10:53:18.540Z,1007.53
2019-01-24T10:54:18.524Z,1007.54
2019-01-24T10:55:18.528Z,1007.46
2019-01-24T10:56:18.500Z,1007.48
2019-01-24T10:57:18.493Z,1007.49
2019-01-24T10:58:18.488Z,1007.55
2019-01-24T10:59:18.489Z,1007.52
2019-01-24T11:00:18.488Z,1007.54
2019-01-24T11:01:18.448Z,1007.49
2019-01-24T11:02:18.448Z,1007.46
2019-01-24T11:03:18.416Z,1007.51
2019-01-24T11:04:18.413Z,1007.42
2019-01-24T11:05:18.429Z,1007.49
2019-01-24T11:06:18.395Z,1007.48
2019-01-24T11:07:18.374Z,1007.42
2019-01-24T11:08:18.372Z,1007.46
2019-01-24T11:09:18.349Z,1007.42
2019-01-24T11:10:18.353Z,1007.43
2019-01-24T11:11:18.351Z,1007.43
2019-01-24T11:12:18.322Z,1007.44
2019-01-24T11:13:18.338Z,1007.45
2019-01-24T11:14:18.310Z,1007.51
2019-01-24T11:15:18.292Z,1007.47
2019-01-24T11:16:18.302Z,1007.52
2019-01-24T11:17:18.276Z,1007.58
2019-01-24T11:18:18.254Z,1007.55
2019-01-24T11:19:18.242Z,1007.52
2019-01-24T11:20:18.227Z,1007.53
2019-01-24T11:21:18.239Z,1007.57
2019-01-24T11:22:18.212Z,1007.56
2019-01-24T11:23:18.211Z,1007.57
2019-01-24T11:24:18.203Z,1007.62
2019-01-24T11:25:18.177Z,1007.60
2019-01-24T11:26:18.202Z,1007.54
2019-01-24T11:27:18.180Z,1007.54
2019-01-24T11:28:18.154Z,1007.53
2019-01-24T11:29:18.129Z,1007.63
2019-01-24T11:30:18.135Z,1007.59
2019-01-24T11:31:18.153Z,1007.69
2019-01-24T11:32:18.112Z,1007.60
2019-01-24T11:33:18.105Z,1007.53
2019-01-24T11:34:18.088Z,1007.49
2019-01-24T11:35:18.080Z,1007.56
2019-01-24T11:36:18.068Z,1007.62
2019-01-24T11:37:18.053Z,1007.55
2019-01-24T11:38:18.062Z,1007.54
2019-01-24T11:39:18.025Z,1007.59
2019-01-24T11:40:18.024Z,1007.58
2019-01-24T11:41:18.034Z,1007.56
2019-01-24T11:42:17.998Z,1007.57
2019-01-24T11:43:17.987Z,1007.62
2019-01-24T11:44:17.974Z,1007.58
2019-01-24T11:45:17.965Z,1007.66
2019-01-24T11:46:17.976Z,1007.58
2019-01-24T11:47:17.945Z,1007.60
2019-01-24T11:48:17.939Z,1007.61
2019-01-24T11:49:17.928Z,1007.58
2019-01-24T11:50:17.918Z,1007.56
2019-01-24T11:51:17.913Z,1007.56
2019-01-24T11:52:17.891Z,1007.61
2019-01-24T11:53:17.882Z,1007.59
2019-01-24T11:54:17.898Z,1007.61
2019-01-24T11:55:17.861Z,1007.64
2019-01-24T11:56:17.868Z,1007.69
2019-01-24T11:57:17.834Z,1007.62
2019-01-24T11:58:17.838Z,1007.56
2019-01-24T11:59:17.822Z,1007.55
2019-01-24T12:00:17.802Z,1007.56
2019-01-24T12:01:19.956Z,1007.68
2019-01-24T12:02:17.795Z,1007.69
2019-01-24T12:03:17.773Z,1007.65
2019-01-24T12:04:17.769Z,1007.73
2019-01-24T12:05:17.750Z,1007.67